Time;durP1;ratioP1;P1;durP2;ratioP2;P2;SDS_P1;SDS_P2;PMS_P1;PMS_P2;Temp;Humidity;BMP_temperature;BMP_pressure;BME280_temperature;BME280_humidity;BME280_pressure;Samples;Min_cycle;Max_cycle;Signal;HPM_P1;HPM_P2
2023/12/15 00:00:00;;;;;;;0.20;0.20;;;;;;;2.95;100.00;97519.47;5029196;28;20517;-76
2023/12/15 00:02:46;;;;;;;0.17;0.17;;;;;;;2.85;100.00;97521.53;5031793;28;20061;-76
2023/12/15 00:05:33;;;;;;;0.17;0.17;;;;;;;2.72;100.00;97515.97;5049529;28;20386;-76
2023/12/15 00:08:19;;;;;;;0.10;0.10;;;;;;;2.57;100.00;97525.63;5048336;28;20052;-76
2023/12/15 00:11:05;;;;;;;0.20;0.20;;;;;;;2.51;100.00;97530.63;5047077;28;20041;-76
2023/12/15 00:13:51;;;;;;;0.20;0.20;;;;;;;2.66;100.00;97538.66;5046899;28;20040;-76
2023/12/15 00:16:37;;;;;;;0.20;0.20;;;;;;;2.81;100.00;97536.09;5048254;28;20044;-76
2023/12/15 00:19:22;;;;;;;0.20;0.20;;;;;;;2.40;100.00;97541.53;5045700;28;20037;-76
2023/12/15 00:22:08;;;;;;;0.20;0.20;;;;;;;2.37;100.00;97549.00;5046564;28;20442;-76
2023/12/15 00:24:54;;;;;;;0.20;0.20;;;;;;;2.38;100.00;97548.00;5048553;28;20052;-76
2023/12/15 00:27:40;;;;;;;0.20;0.20;;;;;;;2.38;100.00;97553.28;5049763;28;20920;-75
2023/12/15 00:30:26;;;;;;;0.10;0.10;;;;;;;2.34;100.00;97550.19;5046815;28;20090;-76
2023/12/15 00:33:12;;;;;;;0.10;0.10;;;;;;;2.26;100.00;97552.00;5046298;28;20044;-76
2023/12/15 00:35:59;;;;;;;0.10;0.10;;;;;;;2.40;100.00;97553.94;5048209;28;20501;-75
2023/12/15 00:38:45;;;;;;;0.20;0.20;;;;;;;2.31;100.00;97565.53;5046292;28;20068;-75
2023/12/15 00:41:56;;;;;;;0.20;0.20;;;;;;;2.27;100.00;97564.22;5046245;28;20603;-75
2023/12/15 00:44:42;;;;;;;0.20;0.20;;;;;;;2.27;100.00;97569.50;5046842;28;20037;-75
2023/12/15 00:47:28;;;;;;;0.20;0.20;;;;;;;2.41;100.00;97582.00;5048486;28;20125;-75
2023/12/15 00:50:14;;;;;;;0.17;0.17;;;;;;;2.57;100.00;97589.91;5045333;28;20029;-76
2023/12/15 00:53:00;;;;;;;0.10;0.10;;;;;;;2.69;100.00;97585.88;5044348;28;20039;-76
2023/12/15 00:55:46;;;;;;;0.10;0.10;;;;;;;2.52;100.00;97584.28;5047447;28;20036;-75
2023/12/15 00:58:32;;;;;;;0.10;0.10;;;;;;;2.46;100.00;97590.25;5044565;28;20164;-75
2023/12/15 01:01:18;;;;;;;0.10;0.10;;;;;;;2.49;100.00;97596.03;5042063;28;20040;-76
2023/12/15 01:04:04;;;;;;;0.20;0.20;;;;;;;2.51;100.00;97595.84;5043499;28;20109;-76
2023/12/15 01:06:49;;;;;;;0.20;0.20;;;;;;;2.71;100.00;97612.13;5044558;28;20122;-75
2023/12/15 01:09:36;;;;;;;0.20;0.20;;;;;;;2.75;100.00;97602.88;5044682;28;20121;-76
2023/12/15 01:12:22;;;;;;;0.20;0.20;;;;;;;2.91;100.00;97605.44;5044026;28;20371;-76
2023/12/15 01:15:08;;;;;;;0.20;0.20;;;;;;;3.03;100.00;97598.75;5043078;28;20040;-76
2023/12/15 01:17:54;;;;;;;0.20;0.20;;;;;;;3.05;100.00;97596.78;5043911;28;20076;-76
2023/12/15 01:20:42;;;;;;;0.20;0.20;;;;;;;3.04;100.00;97600.44;5042998;28;20131;-76
2023/12/15 01:23:28;;;;;;;0.20;0.20;;;;;;;3.08;100.00;97607.00;5033088;28;20029;-78
2023/12/15 01:26:14;;;;;;;0.20;0.20;;;;;;;3.13;100.00;97605.69;5044213;28;20044;-75
2023/12/15 01:29:00;;;;;;;0.20;0.20;;;;;;;2.89;100.00;97609.28;5032042;28;20796;-75
2023/12/15 01:31:45;;;;;;;0.20;0.20;;;;;;;3.02;100.00;97623.56;5031498;28;20476;-75
2023/12/15 01:34:31;;;;;;;0.20;0.20;;;;;;;3.12;100.00;97625.19;5044683;28;20040;-75
2023/12/15 01:37:17;;;;;;;0.10;0.10;;;;;;;3.21;100.00;97629.44;5045839;28;20032;-75
2023/12/15 01:40:07;;;;;;;0.20;0.20;;;;;;;2.99;100.00;97628.38;5044219;28;20036;-75
2023/12/15 01:42:58;;;;;;;0.20;0.20;;;;;;;2.89;100.00;97625.13;5042483;28;20207;-75
2023/12/15 01:45:44;;;;;;;0.20;0.20;;;;;;;2.80;100.00;97629.59;5032126;28;20041;-75
2023/12/15 01:48:30;;;;;;;0.20;0.20;;;;;;;2.77;100.00;97641.34;5045405;28;20414;-75
2023/12/15 01:51:19;;;;;;;0.20;0.20;;;;;;;2.67;100.00;97643.38;5043862;28;20262;-75
2023/12/15 01:54:05;;;;;;;0.20;0.20;;;;;;;2.71;100.00;97646.50;5043161;28;20033;-75
2023/12/15 01:56:51;;;;;;;0.10;0.10;;;;;;;2.89;100.00;97657.69;5042155;28;20064;-75
2023/12/15 01:59:44;;;;;;;0.10;0.10;;;;;;;2.84;100.00;97659.19;5041760;28;20497;-75
2023/12/15 02:02:30;;;;;;;0.20;0.20;;;;;;;2.96;100.00;97657.84;5043043;28;20037;-75
2023/12/15 02:05:16;;;;;;;0.10;0.10;;;;;;;2.83;100.00;97655.72;5041453;28;20049;-75
2023/12/15 02:08:02;;;;;;;0.20;0.20;;;;;;;2.98;100.00;97667.22;5042212;28;20610;-75
2023/12/15 02:10:48;;;;;;;0.20;0.20;;;;;;;3.02;100.00;97668.53;5042356;28;20059;-75
2023/12/15 02:13:34;;;;;;;0.15;0.15;;;;;;;3.04;100.00;97660.44;5042985;28;20060;-75
2023/12/15 02:16:19;;;;;;;0.20;0.20;;;;;;;3.05;100.00;97670.03;5041866;28;20039;-75
2023/12/15 02:19:06;;;;;;;0.20;0.20;;;;;;;3.05;100.00;97665.56;5042260;28;20037;-75
2023/12/15 02:21:52;;;;;;;0.20;0.20;;;;;;;2.61;100.00;97654.63;5031631;28;20071;-75
2023/12/15 02:24:39;;;;;;;0.20;0.20;;;;;;;2.32;100.00;97667.53;5044198;28;20132;-77
2023/12/15 02:27:25;;;;;;;0.20;0.20;;;;;;;2.23;100.00;97651.72;5042883;28;20041;-77
2023/12/15 02:30:10;;;;;;;0.20;0.20;;;;;;;2.36;100.00;97664.41;5044221;28;20033;-77
2023/12/15 02:32:56;;;;;;;0.20;0.20;;;;;;;2.54;100.00;97658.09;5042390;28;20095;-77
2023/12/15 02:35:42;;;;;;;0.20;0.20;;;;;;;2.46;100.00;97670.34;5044740;28;20045;-77
2023/12/15 02:38:28;;;;;;;0.20;0.20;;;;;;;2.51;100.00;97668.03;5043144;28;20283;-77
2023/12/15 02:41:14;;;;;;;0.20;0.20;;;;;;;2.53;100.00;97675.78;5042986;28;20155;-77
2023/12/15 02:44:00;;;;;;;0.20;0.20;;;;;;;2.54;100.00;97676.59;5043885;28;20563;-77
2023/12/15 02:46:46;;;;;;;0.20;0.20;;;;;;;2.59;100.00;97682.22;5044087;28;20041;-77
2023/12/15 02:49:39;;;;;;;0.20;0.20;;;;;;;2.40;100.00;97683.38;5043300;28;20032;-77
2023/12/15 02:52:25;;;;;;;0.20;0.20;;;;;;;2.36;100.00;97684.72;5036329;28;20121;-77
2023/12/15 02:55:13;;;;;;;0.20;0.20;;;;;;;2.50;100.00;97686.69;5041603;28;20029;-77
2023/12/15 02:57:59;;;;;;;0.20;0.20;;;;;;;2.67;100.00;97698.06;5041222;28;20515;-77
2023/12/15 03:00:46;;;;;;;0.20;0.20;;;;;;;2.65;100.00;97692.13;5042789;28;20060;-77
2023/12/15 03:03:32;;;;;;;0.20;0.20;;;;;;;2.81;100.00;97689.44;5042279;28;20513;-77
2023/12/15 03:06:18;;;;;;;0.20;0.20;;;;;;;2.91;100.00;97684.78;5042946;28;20500;-77
2023/12/15 03:09:04;;;;;;;0.15;0.15;;;;;;;3.01;100.00;97682.75;5033116;28;20037;-77
2023/12/15 03:11:50;;;;;;;0.20;0.20;;;;;;;3.05;100.00;97684.06;5046440;28;20020;-77
2023/12/15 03:14:36;;;;;;;0.20;0.20;;;;;;;3.08;100.00;97683.72;5046265;28;20044;-78
2023/12/15 03:17:22;;;;;;;0.20;0.20;;;;;;;3.07;100.00;97697.94;5045743;28;20548;-77
2023/12/15 03:20:08;;;;;;;0.20;0.20;;;;;;;3.15;100.00;97693.63;5047537;28;20346;-77
2023/12/15 03:22:59;;;;;;;0.20;0.20;;;;;;;3.17;100.00;97707.47;5047953;28;20494;-77
2023/12/15 03:25:44;;;;;;;0.20;0.20;;;;;;;3.11;100.00;97700.22;5047094;28;20100;-77
2023/12/15 03:28:31;;;;;;;0.20;0.20;;;;;;;3.18;100.00;97712.59;5047951;28;20045;-77
2023/12/15 03:31:17;;;;;;;0.20;0.20;;;;;;;3.17;100.00;97715.41;5045483;28;20056;-77
2023/12/15 03:34:03;;;;;;;0.20;0.20;;;;;;;3.23;100.00;97717.38;5048506;28;20600;-77
2023/12/15 03:36:48;;;;;;;0.20;0.20;;;;;;;3.13;100.00;97724.72;5048391;28;20044;-75
2023/12/15 03:39:35;;;;;;;0.20;0.20;;;;;;;3.19;100.00;97727.50;5044546;28;20105;-75
2023/12/15 03:42:21;;;;;;;0.17;0.17;;;;;;;3.17;100.00;97718.06;5048096;28;20041;-76
2023/12/15 03:45:07;;;;;;;0.17;0.17;;;;;;;3.08;100.00;97718.09;5048453;28;20033;-76
2023/12/15 03:47:53;;;;;;;0.20;0.20;;;;;;;3.06;100.00;97728.03;5033848;28;20478;-76
2023/12/15 03:50:39;;;;;;;0.20;0.20;;;;;;;3.06;100.00;97724.56;5047576;28;20083;-76
2023/12/15 03:53:25;;;;;;;0.10;0.10;;;;;;;3.01;100.00;97733.00;5045882;28;20098;-76
2023/12/15 03:56:11;;;;;;;0.10;0.10;;;;;;;2.74;100.00;97733.41;5044382;28;20059;-76
2023/12/15 03:58:57;;;;;;;0.20;0.20;;;;;;;2.67;100.00;97732.41;5035991;28;20512;-76
2023/12/15 04:01:43;;;;;;;0.20;0.20;;;;;;;2.51;100.00;97734.09;5046727;28;20489;-76
2023/12/15 04:04:29;;;;;;;0.20;0.20;;;;;;;2.41;100.00;97741.38;5043811;28;20284;-76
2023/12/15 04:07:15;;;;;;;0.20;0.20;;;;;;;2.38;100.00;97736.41;5044060;28;20047;-76
2023/12/15 04:10:01;;;;;;;0.20;0.20;;;;;;;2.05;100.00;97746.13;5042913;28;20033;-76
2023/12/15 04:12:46;;;;;;;0.10;0.10;;;;;;;1.91;100.00;97744.94;5038143;28;20041;-76
2023/12/15 04:15:32;;;;;;;0.20;0.20;;;;;;;1.73;100.00;97752.19;5044874;28;20040;-76
2023/12/15 04:18:19;;;;;;;0.20;0.20;;;;;;;1.62;100.00;97757.75;5044486;28;20060;-76
2023/12/15 04:21:05;;;;;;;0.20;0.20;;;;;;;1.60;100.00;97762.38;5032035;28;20051;-76
2023/12/15 04:23:51;;;;;;;0.20;0.20;;;;;;;1.86;100.00;97770.16;5044861;28;20406;-77
2023/12/15 04:26:40;;;;;;;0.17;0.17;;;;;;;1.94;100.00;97764.91;5045892;28;20097;-77
2023/12/15 04:29:25;;;;;;;0.10;0.10;;;;;;;2.05;100.00;97771.72;5032154;28;20089;-75
2023/12/15 04:32:13;;;;;;;0.10;0.10;;;;;;;2.26;100.00;97758.00;5046020;28;20818;-75
2023/12/15 04:34:59;;;;;;;0.10;0.10;;;;;;;2.31;100.00;97764.47;5047073;28;20044;-75
2023/12/15 04:37:44;;;;;;;0.20;0.20;;;;;;;2.11;100.00;97771.88;5045560;28;20036;-75
2023/12/15 04:40:30;;;;;;;0.20;0.20;;;;;;;2.21;100.00;97766.44;5045165;28;20645;-75
2023/12/15 04:43:16;;;;;;;0.20;0.20;;;;;;;2.24;100.00;97774.03;5047302;28;20638;-75
2023/12/15 04:46:04;;;;;;;0.20;0.20;;;;;;;2.33;100.00;97780.13;5042775;28;20457;-75
2023/12/15 04:48:51;;;;;;;0.20;0.20;;;;;;;2.34;100.00;97773.91;5044189;28;20048;-75
2023/12/15 04:51:36;;;;;;;0.20;0.20;;;;;;;2.27;100.00;97776.38;5045632;28;20040;-75
2023/12/15 04:54:22;;;;;;;0.20;0.20;;;;;;;2.13;100.00;97783.09;5044085;28;20079;-75
2023/12/15 04:57:08;;;;;;;0.20;0.20;;;;;;;2.08;100.00;97787.22;5044667;28;20051;-75
2023/12/15 04:59:54;;;;;;;0.20;0.20;;;;;;;2.07;100.00;97804.88;5041520;28;20103;-75
2023/12/15 05:02:39;;;;;;;0.10;0.10;;;;;;;1.97;100.00;97801.56;5045730;28;20056;-76
2023/12/15 05:05:25;;;;;;;0.20;0.20;;;;;;;1.97;100.00;97795.47;5047097;28;20041;-76
2023/12/15 05:08:11;;;;;;;0.20;0.20;;;;;;;1.90;100.00;97790.00;5047102;28;20548;-76
2023/12/15 05:10:57;;;;;;;0.10;0.10;;;;;;;1.82;100.00;97793.44;5046770;28;20032;-76
2023/12/15 05:13:43;;;;;;;0.20;0.20;;;;;;;1.74;100.00;97808.44;5034945;28;20060;-76
2023/12/15 05:16:29;;;;;;;0.20;0.20;;;;;;;1.74;100.00;97803.16;5048302;28;20526;-76
2023/12/15 05:19:15;;;;;;;0.20;0.20;;;;;;;1.65;100.00;97802.31;5044873;28;20037;-76
2023/12/15 05:22:01;;;;;;;0.20;0.20;;;;;;;1.67;100.00;97792.41;5046717;28;20048;-76
2023/12/15 05:24:47;;;;;;;0.10;0.10;;;;;;;1.75;100.00;97802.16;5045018;28;20028;-76
2023/12/15 05:27:33;;;;;;;0.10;0.10;;;;;;;1.75;100.00;97810.06;5046252;28;20037;-76
2023/12/15 05:30:18;;;;;;;0.20;0.20;;;;;;;1.73;100.00;97810.25;5045234;28;20036;-76
2023/12/15 05:33:04;;;;;;;0.20;0.20;;;;;;;1.68;100.00;97820.44;5046145;28;20037;-76
2023/12/15 05:35:50;;;;;;;0.10;0.10;;;;;;;1.84;100.00;97828.41;5045915;28;20530;-76
2023/12/15 05:38:36;;;;;;;0.20;0.20;;;;;;;1.99;100.00;97838.38;5047362;28;20024;-76
2023/12/15 05:41:22;;;;;;;0.20;0.20;;;;;;;2.22;100.00;97831.47;5046695;28;20071;-76
2023/12/15 05:44:08;;;;;;;0.20;0.20;;;;;;;2.37;100.00;97835.13;5045364;28;20128;-76
2023/12/15 05:46:54;;;;;;;0.10;0.10;;;;;;;2.19;100.00;97843.22;5046865;28;20472;-76
2023/12/15 05:49:40;;;;;;;0.20;0.20;;;;;;;2.32;100.00;97841.91;5044092;28;20040;-76
2023/12/15 05:52:26;;;;;;;0.20;0.20;;;;;;;2.24;100.00;97838.25;5037904;28;20867;-76
2023/12/15 05:55:12;;;;;;;0.20;0.20;;;;;;;2.29;100.00;97837.78;5047625;28;20040;-76
2023/12/15 05:57:58;;;;;;;0.20;0.20;;;;;;;2.27;100.00;97833.66;5047438;28;20041;-76
2023/12/15 06:00:44;;;;;;;0.10;0.10;;;;;;;2.25;100.00;97831.16;5046047;28;20033;-76
2023/12/15 06:03:29;;;;;;;0.20;0.20;;;;;;;2.32;100.00;97831.31;5047318;28;20444;-76
2023/12/15 06:06:15;;;;;;;0.10;0.10;;;;;;;2.06;100.00;97834.91;5046787;28;20819;-75
2023/12/15 06:09:02;;;;;;;0.13;0.13;;;;;;;2.17;100.00;97839.06;5042622;28;20029;-76
2023/12/15 06:11:49;;;;;;;0.20;0.20;;;;;;;2.24;100.00;97850.63;5045389;28;20040;-75
2023/12/15 06:14:38;;;;;;;0.13;0.13;;;;;;;2.27;100.00;97845.03;5048746;28;20040;-75
2023/12/15 06:17:24;;;;;;;0.20;0.20;;;;;;;2.30;100.00;97850.00;5046234;28;20044;-76
2023/12/15 06:20:13;;;;;;;0.10;0.10;;;;;;;2.27;100.00;97855.59;5044080;28;20456;-76
2023/12/15 06:22:59;;;;;;;0.10;0.10;;;;;;;2.32;100.00;97858.56;5044499;28;20142;-76
2023/12/15 06:25:45;;;;;;;0.20;0.20;;;;;;;2.45;100.00;97855.47;5044358;28;20043;-76
2023/12/15 06:28:31;;;;;;;0.20;0.20;;;;;;;2.51;100.00;97858.28;5045564;28;20490;-76
2023/12/15 06:31:17;;;;;;;0.20;0.20;;;;;;;2.41;100.00;97865.53;5045711;28;20056;-76
2023/12/15 06:34:03;;;;;;;0.20;0.20;;;;;;;2.44;100.00;97865.22;5038202;28;20048;-75
2023/12/15 06:36:49;;;;;;;0.10;0.10;;;;;;;2.62;100.00;97870.34;5047975;28;20036;-76
2023/12/15 06:39:35;;;;;;;0.13;0.13;;;;;;;2.68;100.00;97863.59;5044349;28;20392;-76
2023/12/15 06:42:20;;;;;;;0.20;0.20;;;;;;;2.74;100.00;97868.22;5048462;28;20445;-76
2023/12/15 06:45:08;;;;;;;0.20;0.20;;;;;;;2.78;100.00;97861.59;5049518;28;20029;-76
2023/12/15 06:47:54;;;;;;;0.20;0.20;;;;;;;2.62;100.00;97867.69;5048070;28;20159;-76
2023/12/15 06:50:39;;;;;;;0.10;0.10;;;;;;;2.76;100.00;97874.16;5047001;28;20033;-75
2023/12/15 06:53:25;;;;;;;0.10;0.10;;;;;;;2.64;100.00;97872.81;5048781;28;20044;-76
2023/12/15 06:56:11;;;;;;;0.10;0.10;;;;;;;2.77;100.00;97878.44;5048854;28;20036;-76
2023/12/15 06:58:57;;;;;;;0.20;0.20;;;;;;;2.83;100.00;97877.78;5048048;28;20410;-76
2023/12/15 07:01:43;;;;;;;0.20;0.20;;;;;;;2.62;100.00;97888.00;5045546;28;20053;-76
2023/12/15 07:04:28;;;;;;;0.10;0.10;;;;;;;2.59;100.00;97885.72;5046210;28;20064;-76
2023/12/15 07:07:14;;;;;;;0.20;0.20;;;;;;;2.66;100.00;97902.56;5048026;28;20044;-75
2023/12/15 07:10:00;;;;;;;0.10;0.10;;;;;;;2.59;100.00;97901.56;5048157;28;20359;-75
2023/12/15 07:12:46;;;;;;;0.10;0.10;;;;;;;2.42;100.00;97906.81;5048770;28;20040;-75
2023/12/15 07:15:33;;;;;;;0.20;0.20;;;;;;;2.55;100.00;97902.88;5050089;28;20145;-75
2023/12/15 07:18:19;;;;;;;0.20;0.20;;;;;;;2.58;100.00;97916.59;5032552;28;20040;-75
2023/12/15 07:21:05;;;;;;;0.13;0.13;;;;;;;2.73;100.00;97925.53;5048146;28;20742;-75
2023/12/15 07:23:51;;;;;;;0.20;0.20;;;;;;;2.64;100.00;97928.31;5048365;28;20387;-75
2023/12/15 07:26:38;;;;;;;0.20;0.20;;;;;;;2.91;100.00;97925.38;5046180;28;20032;-75
2023/12/15 07:29:24;;;;;;;0.20;0.20;;;;;;;3.05;100.00;97922.09;5048985;28;20095;-75
2023/12/15 07:32:10;;;;;;;0.20;0.20;;;;;;;3.09;100.00;97935.81;5047387;28;20033;-75
2023/12/15 07:34:57;;;;;;;0.20;0.20;;;;;;;3.15;100.00;97937.78;5046662;28;20045;-75
2023/12/15 07:37:43;;;;;;;0.20;0.20;;;;;;;3.25;100.00;97945.56;5048892;28;20043;-75
2023/12/15 07:40:29;;;;;;;0.17;0.17;;;;;;;3.32;100.00;97952.66;5034892;28;20036;-75
2023/12/15 07:43:15;;;;;;;0.20;0.20;;;;;;;3.34;100.00;97957.78;5047745;28;20042;-75
2023/12/15 07:46:00;;;;;;;0.20;0.20;;;;;;;3.33;100.00;97964.06;5048523;28;20105;-75
2023/12/15 07:48:46;;;;;;;0.20;0.20;;;;;;;3.42;100.00;97957.78;5048119;28;20488;-75
2023/12/15 07:51:32;;;;;;;0.20;0.20;;;;;;;3.29;100.00;97960.13;5048461;28;20047;-75
2023/12/15 07:54:18;;;;;;;0.10;0.10;;;;;;;3.38;100.00;97959.13;5045545;28;20033;-75
2023/12/15 07:57:04;;;;;;;0.20;0.20;;;;;;;3.19;100.00;97965.59;5050313;28;20374;-76
2023/12/15 07:59:50;;;;;;;0.10;0.10;;;;;;;3.18;100.00;97960.44;5048953;28;20386;-75
2023/12/15 08:02:35;;;;;;;0.20;0.20;;;;;;;3.12;100.00;97963.75;5047029;28;20387;-75
2023/12/15 08:05:22;;;;;;;0.20;0.20;;;;;;;2.93;100.00;97973.66;5046087;28;20362;-76
2023/12/15 08:08:07;;;;;;;0.20;0.20;;;;;;;2.98;100.00;97974.00;5047180;28;20240;-75
2023/12/15 08:10:53;;;;;;;0.20;0.20;;;;;;;2.78;100.00;97970.81;5048246;28;20051;-75
2023/12/15 08:13:41;;;;;;;0.10;0.10;;;;;;;2.93;100.00;97967.53;5048620;28;20036;-75
2023/12/15 08:16:26;;;;;;;0.20;0.20;;;;;;;2.97;100.00;97977.63;5049931;28;20090;-75
2023/12/15 08:19:12;;;;;;;0.20;0.20;;;;;;;3.02;100.00;97972.66;5049152;28;20044;-75
2023/12/15 08:21:59;;;;;;;0.20;0.20;;;;;;;3.04;100.00;97986.56;5033533;28;20102;-75
2023/12/15 08:24:45;;;;;;;0.10;0.10;;;;;;;3.12;100.00;98004.25;5048067;28;20049;-76
2023/12/15 08:27:31;;;;;;;0.20;0.20;;;;;;;3.36;100.00;98003.44;5049656;28;20045;-76
2023/12/15 08:30:16;;;;;;;0.20;0.20;;;;;;;3.48;100.00;98010.03;5037981;28;20048;-76
2023/12/15 08:33:02;;;;;;;0.20;0.20;;;;;;;3.60;100.00;98000.78;5047639;28;20040;-76
2023/12/15 08:35:48;;;;;;;0.20;0.20;;;;;;;3.58;100.00;98000.13;5048576;28;20049;-78
2023/12/15 08:38:34;;;;;;;0.20;0.20;;;;;;;3.71;100.00;98012.84;5051796;28;20041;-77
2023/12/15 08:41:20;;;;;;;0.20;0.20;;;;;;;3.82;100.00;98011.69;5048087;28;20482;-76
2023/12/15 08:44:06;;;;;;;0.20;0.20;;;;;;;3.87;100.00;98014.66;5050539;28;20055;-76
2023/12/15 08:46:52;;;;;;;0.20;0.20;;;;;;;4.00;100.00;98017.59;5051100;28;20044;-77
2023/12/15 08:49:38;;;;;;;0.13;0.13;;;;;;;3.93;100.00;98008.69;5036541;28;20044;-77
2023/12/15 08:52:24;;;;;;;0.20;0.20;;;;;;;3.81;100.00;98025.91;5047652;28;20544;-77
2023/12/15 08:55:10;;;;;;;0.17;0.17;;;;;;;3.88;100.00;98034.84;5047582;28;20438;-77
2023/12/15 08:57:56;;;;;;;0.20;0.20;;;;;;;3.86;100.00;98037.66;5034753;28;20617;-77
2023/12/15 09:00:42;;;;;;;0.10;0.10;;;;;;;3.88;100.00;98053.38;5047755;28;20041;-77
2023/12/15 09:03:28;;;;;;;0.20;0.20;;;;;;;3.98;100.00;98059.34;5046630;28;20073;-77
2023/12/15 09:06:14;;;;;;;0.20;0.20;;;;;;;4.10;100.00;98050.03;5046648;28;20048;-77
2023/12/15 09:09:00;;;;;;;0.20;0.20;;;;;;;4.11;100.00;98042.91;5035153;28;20087;-77
2023/12/15 09:11:46;;;;;;;0.10;0.10;;;;;;;4.07;100.00;98044.25;5049087;28;20091;-77
2023/12/15 09:14:32;;;;;;;0.20;0.20;;;;;;;4.15;100.00;98054.84;5048548;28;20055;-77
2023/12/15 09:17:18;;;;;;;0.20;0.20;;;;;;;4.10;100.00;98067.75;5047309;28;20290;-76
2023/12/15 09:20:04;;;;;;;0.10;0.10;;;;;;;4.23;100.00;98070.72;5048845;28;20086;-77
2023/12/15 09:22:50;;;;;;;0.10;0.10;;;;;;;4.28;100.00;98076.34;5048705;28;20662;-77
2023/12/15 09:25:36;;;;;;;0.20;0.20;;;;;;;4.31;100.00;98080.47;5050221;28;20045;-77
2023/12/15 09:28:22;;;;;;;0.10;0.10;;;;;;;4.37;100.00;98093.03;5049815;28;20132;-77
2023/12/15 09:31:08;;;;;;;0.15;0.15;;;;;;;4.37;100.00;98093.03;5044727;28;20247;-77
2023/12/15 09:33:54;;;;;;;0.20;0.20;;;;;;;4.29;100.00;98093.06;5035541;28;20083;-77
2023/12/15 09:36:40;;;;;;;0.20;0.20;;;;;;;4.36;100.00;98110.78;5047656;28;20090;-77
2023/12/15 09:39:25;;;;;;;0.20;0.20;;;;;;;4.54;100.00;98109.72;5046894;28;20519;-77
2023/12/15 09:42:11;;;;;;;0.20;0.20;;;;;;;4.57;100.00;98125.28;5046326;28;20032;-77
2023/12/15 09:44:57;;;;;;;0.20;0.20;;;;;;;4.37;100.00;98122.19;5050969;28;20038;-77
2023/12/15 09:47:46;;;;;;;0.13;0.13;;;;;;;4.52;100.00;98114.38;5048426;28;20033;-77
2023/12/15 09:50:39;;;;;;;0.20;0.20;;;;;;;4.55;100.00;98120.16;5048356;28;20052;-77
2023/12/15 09:53:25;;;;;;;0.20;0.20;;;;;;;4.54;100.00;98120.34;5046173;28;20048;-77
2023/12/15 09:56:12;;;;;;;0.20;0.20;;;;;;;4.52;100.00;98127.66;5046566;28;20036;-77
2023/12/15 09:58:57;;;;;;;0.20;0.20;;;;;;;4.47;100.00;98128.97;5047575;28;20044;-77
2023/12/15 10:01:43;;;;;;;0.20;0.20;;;;;;;4.46;100.00;98131.78;5035801;28;20068;-77
2023/12/15 10:04:29;;;;;;;0.20;0.20;;;;;;;4.40;100.00;98138.59;5050243;28;20056;-77
2023/12/15 10:07:15;;;;;;;0.22;0.22;;;;;;;4.45;100.00;98143.41;5046916;28;20036;-77
2023/12/15 10:10:02;;;;;;;0.20;0.20;;;;;;;4.53;100.00;98146.03;5046827;28;20528;-77
2023/12/15 10:12:47;;;;;;;0.20;0.20;;;;;;;4.55;100.00;98141.38;5046214;28;20837;-77
2023/12/15 10:15:33;;;;;;;0.38;0.30;;;;;;;4.64;100.00;98139.53;5004734;28;20119;-77
2023/12/15 10:18:19;;;;;;;0.20;0.20;;;;;;;4.72;100.00;98153.59;5050634;28;20151;-77
2023/12/15 10:21:06;;;;;;;0.60;0.45;;;;;;;4.79;100.00;98156.38;5047340;28;20086;-77
2023/12/15 10:23:51;;;;;;;0.40;0.30;;;;;;;4.68;100.00;98167.38;5051722;28;20125;-77
2023/12/15 10:26:37;;;;;;;0.30;0.30;;;;;;;4.62;100.00;98163.56;5051921;28;20040;-77
2023/12/15 10:29:24;;;;;;;0.28;0.20;;;;;;;4.82;100.00;98157.88;5050913;28;20044;-77
2023/12/15 10:32:10;;;;;;;0.35;0.30;;;;;;;4.93;100.00;98165.47;5051967;28;20072;-77
2023/12/15 10:35:00;;;;;;;0.22;0.22;;;;;;;4.97;100.00;98172.91;5050004;28;20491;-77
2023/12/15 10:37:46;;;;;;;0.30;0.30;;;;;;;5.00;100.00;98163.78;5049447;28;20047;-77
2023/12/15 10:40:32;;;;;;;0.30;0.30;;;;;;;5.03;100.00;98163.44;5052475;28;20436;-77
2023/12/15 10:43:18;;;;;;;0.38;0.35;;;;;;;5.03;100.00;98180.19;5047555;28;20068;-77
2023/12/15 10:46:07;;;;;;;0.60;0.40;;;;;;;5.02;100.00;98175.88;5048247;28;20037;-77
2023/12/15 10:48:54;;;;;;;0.32;0.30;;;;;;;4.97;100.00;98177.38;5042759;28;20480;-77
2023/12/15 10:51:41;;;;;;;0.38;0.30;;;;;;;4.99;100.00;98167.44;5042898;28;20041;-77
2023/12/15 10:54:28;;;;;;;0.35;0.30;;;;;;;4.90;100.00;98165.78;5043430;28;20135;-77
2023/12/15 10:57:14;;;;;;;0.30;0.30;;;;;;;4.84;100.00;98180.59;5048841;28;20037;-76
2023/12/15 11:00:03;;;;;;;0.73;0.43;;;;;;;4.79;100.00;98190.03;5049680;28;20469;-77
2023/12/15 11:02:49;;;;;;;1.30;0.63;;;;;;;4.75;100.00;98185.09;5050025;28;20059;-77
2023/12/15 11:05:35;;;;;;;0.50;0.32;;;;;;;4.93;100.00;98186.69;5048663;28;20052;-77
2023/12/15 11:08:21;;;;;;;0.38;0.30;;;;;;;4.99;100.00;98188.66;5050309;28;20233;-77
2023/12/15 11:11:07;;;;;;;0.20;0.20;;;;;;;5.02;100.00;98183.84;5053125;28;20131;-76
2023/12/15 11:14:01;;;;;;;0.20;0.20;;;;;;;5.07;100.00;98204.56;5050333;28;20046;-77
2023/12/15 11:16:47;;;;;;;0.20;0.20;;;;;;;4.97;100.00;98193.28;5049251;28;20528;-77
2023/12/15 11:19:33;;;;;;;0.17;0.17;;;;;;;5.03;100.00;98190.78;5050442;28;20390;-77
2023/12/15 11:22:21;;;;;;;0.20;0.20;;;;;;;5.04;100.00;98187.13;5050948;28;20045;-77
2023/12/15 11:25:08;;;;;;;0.10;0.10;;;;;;;5.07;100.00;98186.00;5047722;28;20036;-77
2023/12/15 11:28:00;;;;;;;0.20;0.20;;;;;;;5.23;100.00;98182.44;5049672;28;20447;-77
2023/12/15 11:30:53;;;;;;;0.10;0.10;;;;;;;5.35;100.00;98191.66;5049419;28;20072;-76
2023/12/15 11:33:43;;;;;;;0.10;0.10;;;;;;;5.34;100.00;98205.09;5050055;28;20045;-77
2023/12/15 11:36:30;;;;;;;0.20;0.20;;;;;;;5.29;100.00;98201.16;5049970;28;20090;-77
2023/12/15 11:39:16;;;;;;;0.10;0.10;;;;;;;5.31;100.00;98200.97;5049161;28;20455;-77
2023/12/15 11:42:03;;;;;;;0.10;0.10;;;;;;;5.19;100.00;98211.13;5047009;28;20505;-77
2023/12/15 11:44:50;;;;;;;0.10;0.10;;;;;;;5.16;100.00;98210.66;5050430;28;20052;-77
2023/12/15 11:47:36;;;;;;;0.20;0.20;;;;;;;5.19;100.00;98207.66;5050588;28;20040;-77
2023/12/15 11:50:21;;;;;;;0.20;0.20;;;;;;;5.28;100.00;98202.13;5047831;28;20747;-77
2023/12/15 11:53:14;;;;;;;0.20;0.20;;;;;;;5.40;100.00;98202.59;5047875;28;20405;-77
2023/12/15 11:56:01;;;;;;;0.10;0.10;;;;;;;5.52;100.00;98197.72;5050248;28;20048;-77
2023/12/15 11:58:47;;;;;;;0.10;0.10;;;;;;;5.56;100.00;98207.00;5050719;28;20036;-77
2023/12/15 12:01:37;;;;;;;0.20;0.20;;;;;;;5.50;100.00;98216.47;5047184;28;20058;-77
2023/12/15 12:04:24;;;;;;;0.20;0.20;;;;;;;5.38;100.00;98212.56;5050461;28;20060;-77
2023/12/15 12:07:11;;;;;;;0.10;0.10;;;;;;;5.39;100.00;98208.09;5048525;28;20545;-77
2023/12/15 12:09:57;;;;;;;0.20;0.20;;;;;;;5.31;100.00;98200.97;5048274;28;20040;-77
2023/12/15 12:12:43;;;;;;;0.20;0.20;;;;;;;5.18;100.00;98214.78;5050379;28;20308;-77
2023/12/15 12:15:29;;;;;;;0.20;0.20;;;;;;;5.09;100.00;98220.31;5051003;28;20028;-77
2023/12/15 12:18:15;;;;;;;0.20;0.20;;;;;;;5.02;100.00;98217.50;5049559;28;20122;-77
2023/12/15 12:21:04;;;;;;;0.20;0.20;;;;;;;5.01;100.00;98224.63;5049643;28;20600;-77
2023/12/15 12:23:50;;;;;;;0.17;0.17;;;;;;;5.00;100.00;98224.81;5046986;28;20136;-77
2023/12/15 12:26:35;;;;;;;0.20;0.20;;;;;;;5.07;100.00;98219.66;5048531;28;20040;-76
2023/12/15 12:29:21;;;;;;;0.20;0.20;;;;;;;5.02;100.00;98218.34;5019056;28;20069;-77
2023/12/15 12:32:07;;;;;;;0.20;0.20;;;;;;;5.02;100.00;98222.81;5046892;28;20074;-77
2023/12/15 12:34:53;;;;;;;0.20;0.20;;;;;;;5.08;100.00;98218.66;5041180;28;20067;-77
2023/12/15 12:37:39;;;;;;;0.20;0.20;;;;;;;5.06;100.00;98224.13;5048022;28;20517;-77
2023/12/15 12:40:25;;;;;;;0.20;0.20;;;;;;;5.04;100.00;98213.66;5045218;28;20033;-77
2023/12/15 12:43:11;;;;;;;0.20;0.20;;;;;;;5.17;100.00;98217.63;5046817;28;20037;-77
2023/12/15 12:45:57;;;;;;;0.20;0.20;;;;;;;5.22;100.00;98226.75;5048409;28;20044;-77
2023/12/15 12:48:46;;;;;;;0.20;0.20;;;;;;;5.27;100.00;98227.03;5048436;28;20047;-77
2023/12/15 12:51:33;;;;;;;0.20;0.20;;;;;;;5.25;100.00;98234.34;5050153;28;20083;-77
2023/12/15 12:54:18;;;;;;;0.20;0.20;;;;;;;5.25;100.00;98234.34;5047996;28;20120;-77
2023/12/15 12:57:04;;;;;;;0.15;0.15;;;;;;;5.27;100.00;98236.81;5048924;28;20040;-76
2023/12/15 12:59:50;;;;;;;0.10;0.10;;;;;;;5.35;100.00;98246.59;5046833;28;20040;-77
2023/12/15 13:02:38;;;;;;;0.10;0.10;;;;;;;5.34;100.00;98243.09;5046399;28;20049;-77